sensor_id;sensor_type;location;lat;lon;timestamp;pressure;altitude;pressure_sealevel;temperature;humidity
15998;BME280;8103;51.340;12.326;2022-10-31T00:01:37;100646.19;;;15.50;nan
15998;BME280;8103;51.340;12.326;2022-10-31T00:04:05;100659.16;;;15.48;nan
15998;BME280;8103;51.340;12.326;2022-10-31T00:06:32;100655.34;;;15.49;nan
15998;BME280;8103;51.340;12.326;2022-10-31T00:09:02;100654.56;;;15.48;nan
15998;BME280;8103;51.340;12.326;2022-10-31T00:11:30;100649.16;;;15.48;nan
15998;BME280;8103;51.340;12.326;2022-10-31T00:13:58;100647.78;;;15.51;nan
15998;BME280;8103;51.340;12.326;2022-10-31T00:16:28;100651.56;;;15.55;nan
15998;BME280;8103;51.340;12.326;2022-10-31T00:18:59;100645.09;;;15.56;nan
15998;BME280;8103;51.340;12.326;2022-10-31T00:21:28;100650.50;;;15.56;nan
15998;BME280;8103;51.340;12.326;2022-10-31T00:23:58;100653.47;;;15.54;nan
15998;BME280;8103;51.340;12.326;2022-10-31T00:26:30;100659.69;;;15.55;nan
15998;BME280;8103;51.340;12.326;2022-10-31T00:28:59;100659.16;;;15.53;nan
15998;BME280;8103;51.340;12.326;2022-10-31T00:31:26;100657.78;;;15.50;nan
15998;BME280;8103;51.340;12.326;2022-10-31T00:33:54;100668.34;;;15.47;nan
15998;BME280;8103;51.340;12.326;2022-10-31T00:36:21;100664.03;;;15.41;nan
15998;BME280;8103;51.340;12.326;2022-10-31T00:38:48;100665.41;;;15.38;nan
15998;BME280;8103;51.340;12.326;2022-10-31T00:41:17;100669.97;;;15.38;nan
15998;BME280;8103;51.340;12.326;2022-10-31T00:43:44;100664.81;;;15.41;nan
15998;BME280;8103;51.340;12.326;2022-10-31T00:46:12;100671.03;;;15.42;nan
15998;BME280;8103;51.340;12.326;2022-10-31T00:48:39;100669.41;;;15.46;nan
15998;BME280;8103;51.340;12.326;2022-10-31T00:51:07;100666.72;;;15.46;nan
15998;BME280;8103;51.340;12.326;2022-10-31T00:53:35;100674.31;;;15.44;nan
15998;BME280;8103;51.340;12.326;2022-10-31T00:56:02;100677.81;;;15.39;nan
15998;BME280;8103;51.340;12.326;2022-10-31T00:58:29;100684.59;;;15.37;nan
15998;BME280;8103;51.340;12.326;2022-10-31T01:00:56;100680.75;;;15.33;nan
15998;BME280;8103;51.340;12.326;2022-10-31T01:03:26;100679.69;;;15.29;nan
15998;BME280;8103;51.340;12.326;2022-10-31T01:06:06;100676.44;;;15.22;nan
15998;BME280;8103;51.340;12.326;2022-10-31T01:08:35;100683.47;;;15.18;nan
15998;BME280;8103;51.340;12.326;2022-10-31T01:11:15;100678.88;;;15.13;nan
15998;BME280;8103;51.340;12.326;2022-10-31T01:13:43;100680.47;;;15.09;nan
15998;BME280;8103;51.340;12.326;2022-10-31T01:16:17;100681.28;;;15.05;nan
15998;BME280;8103;51.340;12.326;2022-10-31T01:18:44;100682.38;;;15.04;nan
15998;BME280;8103;51.340;12.326;2022-10-31T01:21:26;100686.13;;;14.98;nan
15998;BME280;8103;51.340;12.326;2022-10-31T01:23:55;100687.50;;;14.95;nan
15998;BME280;8103;51.340;12.326;2022-10-31T01:26:26;100687.22;;;14.91;nan
15998;BME280;8103;51.340;12.326;2022-10-31T01:28:59;100693.16;;;14.88;nan
15998;BME280;8103;51.340;12.326;2022-10-31T01:31:34;100683.97;;;14.84;nan
15998;BME280;8103;51.340;12.326;2022-10-31T01:34:03;100690.47;;;14.83;nan
15998;BME280;8103;51.340;12.326;2022-10-31T01:36:37;100687.19;;;14.81;nan
15998;BME280;8103;51.340;12.326;2022-10-31T01:39:08;100687.19;;;14.81;nan
15998;BME280;8103;51.340;12.326;2022-10-31T01:41:38;100687.19;;;14.81;nan
15998;BME280;8103;51.340;12.326;2022-10-31T01:46:54;100691.22;;;14.74;nan
15998;BME280;8103;51.340;12.326;2022-10-31T01:49:42;100688.00;;;14.72;nan
15998;BME280;8103;51.340;12.326;2022-10-31T01:52:29;100688.81;;;14.67;nan
15998;BME280;8103;51.340;12.326;2022-10-31T01:55:17;100683.38;;;14.62;nan
15998;BME280;8103;51.340;12.326;2022-10-31T01:57:49;100690.13;;;14.60;nan
15998;BME280;8103;51.340;12.326;2022-10-31T02:00:21;100691.75;;;14.56;nan
15998;BME280;8103;51.340;12.326;2022-10-31T02:02:50;100689.31;;;14.54;nan
15998;BME280;8103;51.340;12.326;2022-10-31T02:05:24;100688.75;;;14.52;nan
15998;BME280;8103;51.340;12.326;2022-10-31T02:08:02;100686.59;;;14.49;nan
15998;BME280;8103;51.340;12.326;2022-10-31T02:10:33;100690.38;;;14.48;nan
15998;BME280;8103;51.340;12.326;2022-10-31T02:13:06;100686.03;;;14.47;nan
15998;BME280;8103;51.340;12.326;2022-10-31T02:15:36;100691.97;;;14.44;nan
15998;BME280;8103;51.340;12.326;2022-10-31T02:18:07;100679.56;;;14.43;nan
15998;BME280;8103;51.340;12.326;2022-10-31T02:26:58;100695.47;;;14.40;nan
15998;BME280;8103;51.340;12.326;2022-10-31T02:38:29;100689.69;;;14.16;nan
15998;BME280;8103;51.340;12.326;2022-10-31T02:44:30;100697.19;;;14.09;nan
15998;BME280;8103;51.340;12.326;2022-10-31T02:47:22;100701.47;;;14.05;nan
15998;BME280;8103;51.340;12.326;2022-10-31T02:50:10;100707.41;;;14.02;nan
15998;BME280;8103;51.340;12.326;2022-10-31T02:52:38;100706.03;;;14.00;nan
15998;BME280;8103;51.340;12.326;2022-10-31T02:58:00;100709.53;;;13.95;nan
15998;BME280;8103;51.340;12.326;2022-10-31T03:00:37;100717.56;;;13.90;nan
15998;BME280;8103;51.340;12.326;2022-10-31T03:03:23;100716.47;;;13.86;nan
15998;BME280;8103;51.340;12.326;2022-10-31T03:06:20;100715.06;;;13.79;nan
15998;BME280;8103;51.340;12.326;2022-10-31T03:09:03;100720.19;;;13.75;nan
15998;BME280;8103;51.340;12.326;2022-10-31T03:12:11;100725.53;;;13.70;nan
15998;BME280;8103;51.340;12.326;2022-10-31T03:14:52;100720.66;;;13.67;nan
15998;BME280;8103;51.340;12.326;2022-10-31T03:17:36;100722.25;;;13.63;nan
15998;BME280;8103;51.340;12.326;2022-10-31T03:20:09;100726.56;;;13.64;nan
15998;BME280;8103;51.340;12.326;2022-10-31T03:22:39;100734.09;;;13.62;nan
15998;BME280;8103;51.340;12.326;2022-10-31T03:25:08;100726.00;;;13.62;nan
15998;BME280;8103;51.340;12.326;2022-10-31T03:27:38;100727.09;;;13.61;nan
15998;BME280;8103;51.340;12.326;2022-10-31T03:30:07;100735.69;;;13.58;nan
15998;BME280;8103;51.340;12.326;2022-10-31T03:32:44;100734.06;;;13.57;nan
15998;BME280;8103;51.340;12.326;2022-10-31T03:35:17;100728.69;;;13.57;nan
15998;BME280;8103;51.340;12.326;2022-10-31T03:37:47;100730.81;;;13.55;nan
15998;BME280;8103;51.340;12.326;2022-10-31T03:40:20;100740.22;;;13.53;nan
15998;BME280;8103;51.340;12.326;2022-10-31T03:43:08;100742.63;;;13.49;nan
15998;BME280;8103;51.340;12.326;2022-10-31T03:45:44;100742.88;;;13.48;nan
15998;BME280;8103;51.340;12.326;2022-10-31T03:48:18;100743.13;;;13.46;nan
15998;BME280;8103;51.340;12.326;2022-10-31T03:56:47;100747.13;;;13.39;nan
15998;BME280;8103;51.340;12.326;2022-10-31T03:59:32;100750.06;;;13.37;nan
15998;BME280;8103;51.340;12.326;2022-10-31T04:02:06;100756.78;;;13.35;nan
15998;BME280;8103;51.340;12.326;2022-10-31T04:04:36;100746.75;;;13.30;nan
15998;BME280;8103;51.340;12.326;2022-10-31T04:07:06;100753.22;;;13.29;nan
15998;BME280;8103;51.340;12.326;2022-10-31T04:09:38;100750.47;;;13.24;nan
15998;BME280;8103;51.340;12.326;2022-10-31T04:12:10;100756.41;;;13.21;nan
15998;BME280;8103;51.340;12.326;2022-10-31T04:14:41;100752.31;;;13.19;nan
15998;BME280;8103;51.340;12.326;2022-10-31T04:17:15;100760.66;;;13.17;nan
15998;BME280;8103;51.340;12.326;2022-10-31T04:19:43;100752.03;;;13.15;nan
15998;BME280;8103;51.340;12.326;2022-10-31T04:22:10;100753.66;;;13.16;nan
15998;BME280;8103;51.340;12.326;2022-10-31T04:24:40;100759.84;;;13.17;nan
15998;BME280;8103;51.340;12.326;2022-10-31T04:27:07;100755.78;;;13.14;nan
15998;BME280;8103;51.340;12.326;2022-10-31T04:29:34;100762.47;;;13.12;nan
15998;BME280;8103;51.340;12.326;2022-10-31T04:32:01;100763.25;;;13.07;nan
15998;BME280;8103;51.340;12.326;2022-10-31T04:34:28;100762.69;;;13.05;nan
15998;BME280;8103;51.340;12.326;2022-10-31T04:36:55;100762.63;;;13.00;nan
15998;BME280;8103;51.340;12.326;2022-10-31T04:39:22;100771.19;;;12.97;nan
15998;BME280;8103;51.340;12.326;2022-10-31T04:41:51;100771.69;;;12.94;nan
15998;BME280;8103;51.340;12.326;2022-10-31T04:44:18;100773.81;;;12.92;nan
15998;BME280;8103;51.340;12.326;2022-10-31T04:46:45;100779.69;;;12.89;nan
15998;BME280;8103;51.340;12.326;2022-10-31T04:49:12;100785.91;;;12.89;nan
15998;BME280;8103;51.340;12.326;2022-10-31T04:51:39;100778.91;;;12.88;nan
15998;BME280;8103;51.340;12.326;2022-10-31T04:54:06;100778.91;;;12.88;nan
15998;BME280;8103;51.340;12.326;2022-10-31T04:56:33;100787.25;;;12.87;nan
15998;BME280;8103;51.340;12.326;2022-10-31T04:59:00;100783.97;;;12.85;nan
15998;BME280;8103;51.340;12.326;2022-10-31T05:01:27;100785.31;;;12.82;nan
15998;BME280;8103;51.340;12.326;2022-10-31T05:03:54;100786.63;;;12.80;nan
15998;BME280;8103;51.340;12.326;2022-10-31T05:06:21;100784.97;;;12.79;nan
15998;BME280;8103;51.340;12.326;2022-10-31T05:08:48;100782.78;;;12.76;nan
15998;BME280;8103;51.340;12.326;2022-10-31T05:11:15;100784.13;;;12.73;nan
15998;BME280;8103;51.340;12.326;2022-10-31T05:13:42;100784.38;;;12.72;nan
15998;BME280;8103;51.340;12.326;2022-10-31T05:16:09;100779.72;;;12.67;nan
15998;BME280;8103;51.340;12.326;2022-10-31T05:18:36;100779.97;;;12.66;nan
15998;BME280;8103;51.340;12.326;2022-10-31T05:21:03;100775.69;;;12.65;nan
15998;BME280;8103;51.340;12.326;2022-10-31T05:23:30;100779.16;;;12.65;nan
15998;BME280;8103;51.340;12.326;2022-10-31T05:25:57;100775.09;;;12.63;nan
15998;BME280;8103;51.340;12.326;2022-10-31T05:28:24;100788.56;;;12.63;nan
15998;BME280;8103;51.340;12.326;2022-10-31T05:30:51;100781.81;;;12.60;nan
15998;BME280;8103;51.340;12.326;2022-10-31T05:33:18;100777.75;;;12.58;nan
15998;BME280;8103;51.340;12.326;2022-10-31T05:35:45;100776.34;;;12.55;nan
15998;BME280;8103;51.340;12.326;2022-10-31T05:38:12;100781.19;;;12.53;nan
15998;BME280;8103;51.340;12.326;2022-10-31T05:40:39;100780.03;;;12.49;nan
15998;BME280;8103;51.340;12.326;2022-10-31T05:43:06;100782.19;;;12.47;nan
15998;BME280;8103;51.340;12.326;2022-10-31T05:45:33;100779.75;;;12.46;nan
15998;BME280;8103;51.340;12.326;2022-10-31T05:48:01;100775.97;;;12.47;nan
15998;BME280;8103;51.340;12.326;2022-10-31T05:50:31;100779.75;;;12.46;nan
15998;BME280;8103;51.340;12.326;2022-10-31T05:53:02;100779.75;;;12.46;nan
15998;BME280;8103;51.340;12.326;2022-10-31T05:55:31;100776.47;;;12.44;nan
15998;BME280;8103;51.340;12.326;2022-10-31T05:57:58;100776.47;;;12.44;nan
15998;BME280;8103;51.340;12.326;2022-10-31T06:00:27;100772.16;;;12.43;nan
15998;BME280;8103;51.340;12.326;2022-10-31T06:03:03;100786.75;;;12.47;nan
15998;BME280;8103;51.340;12.326;2022-10-31T06:05:32;100792.13;;;12.47;nan
15998;BME280;8103;51.340;12.326;2022-10-31T06:07:59;100788.59;;;12.46;nan
15998;BME280;8103;51.340;12.326;2022-10-31T06:10:27;100796.69;;;12.46;nan
15998;BME280;8103;51.340;12.326;2022-10-31T06:12:54;100792.38;;;12.45;nan
15998;BME280;8103;51.340;12.326;2022-10-31T06:15:20;100794.22;;;12.45;nan
15998;BME280;8103;51.340;12.326;2022-10-31T06:18:05;100793.75;;;12.48;nan
15998;BME280;8103;51.340;12.326;2022-10-31T06:20:33;100803.22;;;12.50;nan
15998;BME280;8103;51.340;12.326;2022-10-31T06:23:01;100802.72;;;12.53;nan
15998;BME280;8103;51.340;12.326;2022-10-31T06:25:29;100808.38;;;12.57;nan
15998;BME280;8103;51.340;12.326;2022-10-31T06:27:56;100795.50;;;12.59;nan
15998;BME280;8103;51.340;12.326;2022-10-31T06:30:23;100811.16;;;12.62;nan
15998;BME280;8103;51.340;12.326;2022-10-31T06:32:51;100816.53;;;12.62;nan
15998;BME280;8103;51.340;12.326;2022-10-31T06:35:18;100809.56;;;12.66;nan
15998;BME280;8103;51.340;12.326;2022-10-31T06:37:55;100815.53;;;12.68;nan
15998;BME280;8103;51.340;12.326;2022-10-31T06:40:22;100824.16;;;12.70;nan
15998;BME280;8103;51.340;12.326;2022-10-31T06:43:02;100819.91;;;12.74;nan
15998;BME280;8103;51.340;12.326;2022-10-31T06:45:29;100829.69;;;12.80;nan
15998;BME280;8103;51.340;12.326;2022-10-31T06:47:56;100828.09;;;12.84;nan
15998;BME280;8103;51.340;12.326;2022-10-31T06:50:44;100832.75;;;12.88;nan
15998;BME280;8103;51.340;12.326;2022-10-31T06:53:11;100837.88;;;12.90;nan
15998;BME280;8103;51.340;12.326;2022-10-31T06:55:41;100839.00;;;12.94;nan
15998;BME280;8103;51.340;12.326;2022-10-31T06:58:11;100832.84;;;12.99;nan
15998;BME280;8103;51.340;12.326;2022-10-31T07:00:38;100839.13;;;13.04;nan
15998;BME280;8103;51.340;12.326;2022-10-31T07:03:10;100837.56;;;13.08;nan
15998;BME280;8103;51.340;12.326;2022-10-31T07:05:38;100835.75;;;13.14;nan
15998;BME280;8103;51.340;12.326;2022-10-31T07:08:08;100842.56;;;13.21;nan
15998;BME280;8103;51.340;12.326;2022-10-31T07:10:38;100840.50;;;13.28;nan
15998;BME280;8103;51.340;12.326;2022-10-31T07:13:14;100837.06;;;13.38;nan
15998;BME280;8103;51.340;12.326;2022-10-31T07:15:42;100844.97;;;13.49;nan
15998;BME280;8103;51.340;12.326;2022-10-31T07:18:11;100848.84;;;13.58;nan
15998;BME280;8103;51.340;12.326;2022-10-31T07:20:39;100853.22;;;13.64;nan
15998;BME280;8103;51.340;12.326;2022-10-31T07:23:08;100855.47;;;13.72;nan
15998;BME280;8103;51.340;12.326;2022-10-31T07:25:35;100859.84;;;13.78;nan
15998;BME280;8103;51.340;12.326;2022-10-31T07:28:02;100859.59;;;13.85;nan
15998;BME280;8103;51.340;12.326;2022-10-31T07:30:29;100865.38;;;13.98;nan
15998;BME280;8103;51.340;12.326;2022-10-31T07:32:57;100869.50;;;14.11;nan
15998;BME280;8103;51.340;12.326;2022-10-31T07:35:28;100864.72;;;14.18;nan
15998;BME280;8103;51.340;12.326;2022-10-31T07:37:56;100866.63;;;14.22;nan
15998;BME280;8103;51.340;12.326;2022-10-31T07:40:24;100869.72;;;14.31;nan
15998;BME280;8103;51.340;12.326;2022-10-31T07:42:52;100869.78;;;14.41;nan
15998;BME280;8103;51.340;12.326;2022-10-31T07:45:20;100857.69;;;14.53;nan
15998;BME280;8103;51.340;12.326;2022-10-31T07:47:51;100868.28;;;14.65;nan
15998;BME280;8103;51.340;12.326;2022-10-31T07:50:25;100861.56;;;14.72;nan
15998;BME280;8103;51.340;12.326;2022-10-31T07:53:05;100862.16;;;14.84;nan
15998;BME280;8103;51.340;12.326;2022-10-31T07:55:33;100863.06;;;15.00;nan
15998;BME280;8103;51.340;12.326;2022-10-31T07:58:13;100860.91;;;15.12;nan
15998;BME280;8103;51.340;12.326;2022-10-31T08:00:44;100862.84;;;15.27;nan
15998;BME280;8103;51.340;12.326;2022-10-31T08:03:16;100856.44;;;15.38;nan
15998;BME280;8103;51.340;12.326;2022-10-31T08:05:44;100865.66;;;15.52;nan
15998;BME280;8103;51.340;12.326;2022-10-31T08:08:14;100861.91;;;15.63;nan
15998;BME280;8103;51.340;12.326;2022-10-31T08:10:42;100861.06;;;15.72;nan
15998;BME280;8103;51.340;12.326;2022-10-31T08:13:14;100867.84;;;15.80;nan
15998;BME280;8103;51.340;12.326;2022-10-31T08:15:41;100865.69;;;15.92;nan
15998;BME280;8103;51.340;12.326;2022-10-31T08:18:13;100865.44;;;16.08;nan
15998;BME280;8103;51.340;12.326;2022-10-31T08:20:42;100865.66;;;16.22;nan
15998;BME280;8103;51.340;12.326;2022-10-31T08:23:12;100861.31;;;16.36;nan
15998;BME280;8103;51.340;12.326;2022-10-31T08:25:39;100859.69;;;16.55;nan
15998;BME280;8103;51.340;12.326;2022-10-31T08:28:10;100856.13;;;16.69;nan
15998;BME280;8103;51.340;12.326;2022-10-31T08:30:39;100857.41;;;16.87;nan
15998;BME280;8103;51.340;12.326;2022-10-31T08:33:17;100854.59;;;17.12;nan
15998;BME280;8103;51.340;12.326;2022-10-31T08:35:44;100862.06;;;17.35;nan
15998;BME280;8103;51.340;12.326;2022-10-31T08:38:14;100862.84;;;17.46;nan
15998;BME280;8103;51.340;12.326;2022-10-31T08:40:41;100862.06;;;17.79;nan
15998;BME280;8103;51.340;12.326;2022-10-31T08:43:15;100855.13;;;19.00;nan
15998;BME280;8103;51.340;12.326;2022-10-31T08:45:44;100853.63;;;20.65;nan
15998;BME280;8103;51.340;12.326;2022-10-31T08:48:14;100853.38;;;22.00;nan
15998;BME280;8103;51.340;12.326;2022-10-31T08:50:43;100855.78;;;22.93;nan
15998;BME280;8103;51.340;12.326;2022-10-31T08:53:17;100854.91;;;23.92;nan
15998;BME280;8103;51.340;12.326;2022-10-31T08:55:45;100852.97;;;24.72;nan
15998;BME280;8103;51.340;12.326;2022-10-31T08:58:16;100859.66;;;25.21;nan
15998;BME280;8103;51.340;12.326;2022-10-31T09:00:46;100861.09;;;24.98;nan
15998;BME280;8103;51.340;12.326;2022-10-31T09:03:20;100869.03;;;24.45;nan
15998;BME280;8103;51.340;12.326;2022-10-31T09:05:49;100866.78;;;24.47;nan
15998;BME280;8103;51.340;12.326;2022-10-31T09:08:17;100861.75;;;24.95;nan
15998;BME280;8103;51.340;12.326;2022-10-31T09:10:44;100856.34;;;25.36;nan
15998;BME280;8103;51.340;12.326;2022-10-31T09:13:15;100848.25;;;25.11;nan
15998;BME280;8103;51.340;12.326;2022-10-31T09:15:46;100850.44;;;25.46;nan
15998;BME280;8103;51.340;12.326;2022-10-31T09:18:17;100850.44;;;27.01;nan
15998;BME280;8103;51.340;12.326;2022-10-31T09:20:46;100847.47;;;28.40;nan
15998;BME280;8103;51.340;12.326;2022-10-31T09:23:22;100842.84;;;29.60;nan
15998;BME280;8103;51.340;12.326;2022-10-31T09:25:53;100850.78;;;30.18;nan
15998;BME280;8103;51.340;12.326;2022-10-31T09:28:23;100852.47;;;30.91;nan
15998;BME280;8103;51.340;12.326;2022-10-31T09:30:54;100845.75;;;31.73;nan
15998;BME280;8103;51.340;12.326;2022-10-31T09:33:26;100849.38;;;32.50;nan
15998;BME280;8103;51.340;12.326;2022-10-31T09:35:53;100846.53;;;33.48;nan
15998;BME280;8103;51.340;12.326;2022-10-31T09:38:21;100856.75;;;32.76;nan
15998;BME280;8103;51.340;12.326;2022-10-31T09:41:37;100847.84;;;30.30;nan
15998;BME280;8103;51.340;12.326;2022-10-31T09:44:28;100839.41;;;29.28;nan
15998;BME280;8103;51.340;12.326;2022-10-31T09:53:10;100841.69;;;31.97;nan
15998;BME280;8103;51.340;12.326;2022-10-31T09:55:42;100830.00;;;32.57;nan
15998;BME280;8103;51.340;12.326;2022-10-31T09:58:26;100836.91;;;31.35;nan
15998;BME280;8103;51.340;12.326;2022-10-31T10:01:00;100832.38;;;31.82;nan
15998;BME280;8103;51.340;12.326;2022-10-31T10:03:38;100833.38;;;32.33;nan
15998;BME280;8103;51.340;12.326;2022-10-31T10:06:25;100837.22;;;30.78;nan
15998;BME280;8103;51.340;12.326;2022-10-31T10:08:55;100833.25;;;31.05;nan
15998;BME280;8103;51.340;12.326;2022-10-31T10:14:56;100829.34;;;33.36;nan
15998;BME280;8103;51.340;12.326;2022-10-31T10:17:48;100829.72;;;35.01;nan
15998;BME280;8103;51.340;12.326;2022-10-31T10:20:37;100825.97;;;36.35;nan
15998;BME280;8103;51.340;12.326;2022-10-31T10:23:37;100826.81;;;37.24;nan
15998;BME280;8103;51.340;12.326;2022-10-31T10:26:38;100828.72;;;37.94;nan
15998;BME280;8103;51.340;12.326;2022-10-31T10:29:34;100827.78;;;38.81;nan
15998;BME280;8103;51.340;12.326;2022-10-31T10:32:58;100827.13;;;39.16;nan
15998;BME280;8103;51.340;12.326;2022-10-31T10:35:19;100823.09;;;38.74;nan
15998;BME280;8103;51.340;12.326;2022-10-31T10:37:55;100825.53;;;38.22;nan
15998;BME280;8103;51.340;12.326;2022-10-31T10:40:27;100823.50;;;36.48;nan
15998;BME280;8103;51.340;12.326;2022-10-31T10:43:19;100822.97;;;35.02;nan
15998;BME280;8103;51.340;12.326;2022-10-31T10:46:15;100821.75;;;34.25;nan
15998;BME280;8103;51.340;12.326;2022-10-31T10:49:21;100809.19;;;33.49;nan
15998;BME280;8103;51.340;12.326;2022-10-31T10:58:09;100796.25;;;32.59;nan
15998;BME280;8103;51.340;12.326;2022-10-31T11:00:45;100795.59;;;31.89;nan
15998;BME280;8103;51.340;12.326;2022-10-31T11:03:15;100796.84;;;31.06;nan
15998;BME280;8103;51.340;12.326;2022-10-31T11:05:55;100792.22;;;30.16;nan
15998;BME280;8103;51.340;12.326;2022-10-31T11:08:31;100787.38;;;29.15;nan
15998;BME280;8103;51.340;12.326;2022-10-31T11:14:02;100785.09;;;27.37;nan
15998;BME280;8103;51.340;12.326;2022-10-31T11:16:38;100792.63;;;26.88;nan
15998;BME280;8103;51.340;12.326;2022-10-31T11:19:27;100779.78;;;26.56;nan
15998;BME280;8103;51.340;12.326;2022-10-31T11:22:07;100776.22;;;26.32;nan
15998;BME280;8103;51.340;12.326;2022-10-31T11:24:40;100770.31;;;26.09;nan
15998;BME280;8103;51.340;12.326;2022-10-31T11:27:25;100776.44;;;25.82;nan
15998;BME280;8103;51.340;12.326;2022-10-31T11:30:03;100779.09;;;25.58;nan
15998;BME280;8103;51.340;12.326;2022-10-31T11:32:31;100773.28;;;25.39;nan
15998;BME280;8103;51.340;12.326;2022-10-31T11:35:02;100767.75;;;25.19;nan
15998;BME280;8103;51.340;12.326;2022-10-31T11:37:34;100761.41;;;25.06;nan
15998;BME280;8103;51.340;12.326;2022-10-31T11:40:06;100768.41;;;24.95;nan
15998;BME280;8103;51.340;12.326;2022-10-31T11:42:42;100759.25;;;24.91;nan
15998;BME280;8103;51.340;12.326;2022-10-31T11:45:28;100758.66;;;24.85;nan
15998;BME280;8103;51.340;12.326;2022-10-31T11:47:58;100755.50;;;24.75;nan
15998;BME280;8103;51.340;12.326;2022-10-31T11:50:40;100754.34;;;24.76;nan
15998;BME280;8103;51.340;12.326;2022-10-31T11:53:21;100750.44;;;24.77;nan
15998;BME280;8103;51.340;12.326;2022-10-31T11:56:17;100747.53;;;24.82;nan
15998;BME280;8103;51.340;12.326;2022-10-31T11:58:56;100748.94;;;24.88;nan
15998;BME280;8103;51.340;12.326;2022-10-31T12:01:28;100743.38;;;24.97;nan
15998;BME280;8103;51.340;12.326;2022-10-31T12:04:10;100739.78;;;25.05;nan
15998;BME280;8103;51.340;12.326;2022-10-31T12:06:40;100747.69;;;25.27;nan
15998;BME280;8103;51.340;12.326;2022-10-31T12:09:24;100738.44;;;25.31;nan
15998;BME280;8103;51.340;12.326;2022-10-31T12:15:31;100728.31;;;25.76;nan
15998;BME280;8103;51.340;12.326;2022-10-31T12:18:27;100731.59;;;26.26;nan
15998;BME280;8103;51.340;12.326;2022-10-31T12:21:33;100727.63;;;26.48;nan
15998;BME280;8103;51.340;12.326;2022-10-31T12:34:14;100707.78;;;28.20;nan
15998;BME280;8103;51.340;12.326;2022-10-31T12:42:46;100696.56;;;29.13;nan
15998;BME280;8103;51.340;12.326;2022-10-31T12:45:55;100694.91;;;28.93;nan
15998;BME280;8103;51.340;12.326;2022-10-31T12:49:02;100690.19;;;28.94;nan
15998;BME280;8103;51.340;12.326;2022-10-31T12:58:00;100686.91;;;30.09;nan
15998;BME280;8103;51.340;12.326;2022-10-31T13:00:31;100676.63;;;30.32;nan
15998;BME280;8103;51.340;12.326;2022-10-31T13:03:30;100677.47;;;30.36;nan
15998;BME280;8103;51.340;12.326;2022-10-31T13:06:09;100675.09;;;30.12;nan
15998;BME280;8103;51.340;12.326;2022-10-31T13:08:54;100666.09;;;29.70;nan
15998;BME280;8103;51.340;12.326;2022-10-31T13:11:42;100672.88;;;29.35;nan
15998;BME280;8103;51.340;12.326;2022-10-31T13:15:04;100663.56;;;28.66;nan
15998;BME280;8103;51.340;12.326;2022-10-31T13:17:45;100672.16;;;28.30;nan
15998;BME280;8103;51.340;12.326;2022-10-31T13:20:38;100671.13;;;28.04;nan
15998;BME280;8103;51.340;12.326;2022-10-31T13:23:33;100665.91;;;27.56;nan
15998;BME280;8103;51.340;12.326;2022-10-31T13:26:44;100662.47;;;27.04;nan
15998;BME280;8103;51.340;12.326;2022-10-31T13:29:33;100657.34;;;26.62;nan
15998;BME280;8103;51.340;12.326;2022-10-31T13:32:05;100654.25;;;26.28;nan
15998;BME280;8103;51.340;12.326;2022-10-31T13:34:41;100652.28;;;25.92;nan
15998;BME280;8103;51.340;12.326;2022-10-31T13:37:35;100648.34;;;25.57;nan
15998;BME280;8103;51.340;12.326;2022-10-31T13:40:50;100651.19;;;25.28;nan
15998;BME280;8103;51.340;12.326;2022-10-31T13:43:27;100646.31;;;25.01;nan
15998;BME280;8103;51.340;12.326;2022-10-31T13:45:57;100641.25;;;24.70;nan
15998;BME280;8103;51.340;12.326;2022-10-31T13:48:37;100637.88;;;24.44;nan
15998;BME280;8103;51.340;12.326;2022-10-31T13:51:10;100639.00;;;24.14;nan
15998;BME280;8103;51.340;12.326;2022-10-31T13:56:34;100631.50;;;23.65;nan
15998;BME280;8103;51.340;12.326;2022-10-31T14:01:36;100624.84;;;23.29;nan
15998;BME280;8103;51.340;12.326;2022-10-31T14:04:25;100626.59;;;23.08;nan
15998;BME280;8103;51.340;12.326;2022-10-31T14:07:12;100623.88;;;22.90;nan
15998;BME280;8103;51.340;12.326;2022-10-31T14:10:20;100614.88;;;22.73;nan
15998;BME280;8103;51.340;12.326;2022-10-31T14:12:49;100620.66;;;22.63;nan
15998;BME280;8103;51.340;12.326;2022-10-31T14:15:23;100615.97;;;22.46;nan
15998;BME280;8103;51.340;12.326;2022-10-31T14:17:57;100615.47;;;22.36;nan
15998;BME280;8103;51.340;12.326;2022-10-31T14:25:40;100605.84;;;21.82;nan
15998;BME280;8103;51.340;12.326;2022-10-31T14:28:34;100612.53;;;21.68;nan
15998;BME280;8103;51.340;12.326;2022-10-31T14:31:02;100604.31;;;21.59;nan
15998;BME280;8103;51.340;12.326;2022-10-31T14:33:30;100601.84;;;21.49;nan
15998;BME280;8103;51.340;12.326;2022-10-31T14:36:23;100599.53;;;21.34;nan
15998;BME280;8103;51.340;12.326;2022-10-31T14:39:21;100604.25;;;21.20;nan
15998;BME280;8103;51.340;12.326;2022-10-31T14:45:25;100588.22;;;20.97;nan
15998;BME280;8103;51.340;12.326;2022-10-31T14:48:31;100582.81;;;20.83;nan
15998;BME280;8103;51.340;12.326;2022-10-31T14:51:03;100590.72;;;20.71;nan
15998;BME280;8103;51.340;12.326;2022-10-31T14:53:50;100587.13;;;20.62;nan
15998;BME280;8103;51.340;12.326;2022-10-31T14:56:26;100581.91;;;20.52;nan
15998;BME280;8103;51.340;12.326;2022-10-31T14:59:05;100569.53;;;20.46;nan
15998;BME280;8103;51.340;12.326;2022-10-31T15:01:38;100572.50;;;20.36;nan
15998;BME280;8103;51.340;12.326;2022-10-31T15:04:22;100570.31;;;20.24;nan
15998;BME280;8103;51.340;12.326;2022-10-31T15:07:23;100561.06;;;20.12;nan
15998;BME280;8103;51.340;12.326;2022-10-31T15:10:26;100571.63;;;20.00;nan
15998;BME280;8103;51.340;12.326;2022-10-31T15:12:54;100572.53;;;19.95;nan
15998;BME280;8103;51.340;12.326;2022-10-31T15:15:24;100567.63;;;19.84;nan
15998;BME280;8103;51.340;12.326;2022-10-31T15:18:26;100571.94;;;19.71;nan
15998;BME280;8103;51.340;12.326;2022-10-31T15:20:56;100562.69;;;19.59;nan